Messwerte Aquadilla

Temperatur

Temperatur
°C
1573441200 23.00 23.00 24
1573444800 0.00 0.00 24
1573448400 1.00 1.00 23
1573452000 2.00 2.00
1573455600 3.00 3.00
1573459200 4.00 4.00
1573462800 5.00 5.00
1573466400 6.00 6.00
1573470000 7.00 7.00 22
1573473600 8.00 8.00 25
1573477200 9.00 9.00
1573480800 10.00 10.00 28
1573484400 11.00 11.00 29
1573488000 12.00 12.00 30
1573491600 13.00 13.00 30
1573495200 14.00 14.00 28
1573498800 15.00 15.00 28
1573502400 16.00 16.00 28
1573506000 17.00 17.00 27
1573509600 18.00 18.00 26
1573513200 19.00 19.00 24
1573516800 20.00 20.00 24
1573520400 21.00 21.00 24
1573524000 22.00 22.00 24

Aktuellste Messwerte

Wettercharakter
Wetter: klar
Temperatur
23 °C
Feuchtigkeit
94 %
Wind
0 km/h, -
Luftdruck
1015 hPa
Messzeit: 11. November 2019, 23.00Datenquelle: METAR

Weitere Messstationen in der Nähe

Messstation Temperatur Entfernung
San Juan 26 °C 122 km
Punta Cana 24 °C 131 km
Roosevelt Roads - 161 km
La Romana - 187 km
Charlotte Amalie 26 °C 229 km
Arroyo Barril - 256 km
Christiansted/Saint Croix 26 °C 262 km

Wind

Windrichtung Böen Mittelwind
° km/h km/h
1573441200 23.00 22.00 - 23.00 0
1573444800 0.00 23.00 - 0.00 0
1573448400 1.00 0.00 - 1.00 0
1573452000 2.00 1.00 - 2.00
1573455600 3.00 2.00 - 3.00
1573459200 4.00 3.00 - 4.00
1573462800 5.00 4.00 - 5.00
1573466400 6.00 5.00 - 6.00
1573470000 7.00 6.00 - 7.00 0
1573473600 8.00 7.00 - 8.00 0
1573477200 9.00 8.00 - 9.00
1573480800 10.00 9.00 - 10.00 70° 10
1573484400 11.00 10.00 - 11.00 40° 15
1573488000 12.00 11.00 - 12.00 70° 10
1573491600 13.00 12.00 - 13.00 40° 15
1573495200 14.00 13.00 - 14.00 40° 20
1573498800 15.00 14.00 - 15.00 40° 10
1573502400 16.00 15.00 - 16.00 150° 30 10
1573506000 17.00 16.00 - 17.00 110° 5
1573509600 18.00 17.00 - 18.00 0
1573513200 19.00 18.00 - 19.00 0
1573516800 20.00 19.00 - 20.00 0
1573520400 21.00 20.00 - 21.00 160° 5
1573524000 22.00 21.00 - 22.00 0

Ihre Wetterstation

Fehlt Ihre Wetterstation auf unserem Portal?

Schreiben Sie an network@meteonews.ch

Klima

Wann ist es am wärmsten? Wann regnet es am wenigsten? Unsere Klimadaten geben Auskunft.